sensor_id;sensor_type;location;lat;lon;timestamp;P1;durP1;ratioP1;P2;durP2;ratioP2
7831;SDS011;3961;42.058;25.586;2022-12-10T00:01:03;94.60;;;35.57;;
7831;SDS011;3961;42.058;25.586;2022-12-10T00:03:32;103.03;;;34.37;;
7831;SDS011;3961;42.058;25.586;2022-12-10T00:05:59;99.00;;;35.90;;
7831;SDS011;3961;42.058;25.586;2022-12-10T00:08:28;105.70;;;36.77;;
7831;SDS011;3961;42.058;25.586;2022-12-10T00:10:54;97.10;;;35.97;;
7831;SDS011;3961;42.058;25.586;2022-12-10T00:13:20;100.77;;;35.53;;
7831;SDS011;3961;42.058;25.586;2022-12-10T00:15:45;100.60;;;36.13;;
7831;SDS011;3961;42.058;25.586;2022-12-10T00:18:11;99.30;;;34.67;;
7831;SDS011;3961;42.058;25.586;2022-12-10T00:20:37;105.80;;;34.73;;
7831;SDS011;3961;42.058;25.586;2022-12-10T00:23:03;96.27;;;35.93;;
7831;SDS011;3961;42.058;25.586;2022-12-10T00:25:29;105.20;;;36.80;;
7831;SDS011;3961;42.058;25.586;2022-12-10T00:27:56;115.67;;;35.60;;
7831;SDS011;3961;42.058;25.586;2022-12-10T00:30:22;100.30;;;35.33;;
7831;SDS011;3961;42.058;25.586;2022-12-10T00:32:47;112.77;;;34.30;;
7831;SDS011;3961;42.058;25.586;2022-12-10T00:35:12;109.80;;;34.13;;
7831;SDS011;3961;42.058;25.586;2022-12-10T00:37:38;97.73;;;33.60;;
7831;SDS011;3961;42.058;25.586;2022-12-10T00:40:04;97.77;;;34.20;;
7831;SDS011;3961;42.058;25.586;2022-12-10T00:42:29;102.87;;;33.63;;
7831;SDS011;3961;42.058;25.586;2022-12-10T00:44:55;107.27;;;34.77;;
7831;SDS011;3961;42.058;25.586;2022-12-10T00:47:20;102.20;;;34.13;;
7831;SDS011;3961;42.058;25.586;2022-12-10T00:49:46;98.87;;;33.63;;
7831;SDS011;3961;42.058;25.586;2022-12-10T00:52:11;97.57;;;33.90;;
7831;SDS011;3961;42.058;25.586;2022-12-10T00:54:37;98.40;;;34.40;;
7831;SDS011;3961;42.058;25.586;2022-12-10T00:57:02;103.57;;;34.70;;
7831;SDS011;3961;42.058;25.586;2022-12-10T00:59:28;87.00;;;30.27;;
7831;SDS011;3961;42.058;25.586;2022-12-10T01:01:53;100.70;;;31.93;;
7831;SDS011;3961;42.058;25.586;2022-12-10T01:04:19;97.90;;;31.13;;
7831;SDS011;3961;42.058;25.586;2022-12-10T01:06:45;95.07;;;31.13;;
7831;SDS011;3961;42.058;25.586;2022-12-10T01:09:13;89.47;;;30.23;;
7831;SDS011;3961;42.058;25.586;2022-12-10T01:11:41;95.87;;;31.13;;
7831;SDS011;3961;42.058;25.586;2022-12-10T01:14:08;102.23;;;32.77;;
7831;SDS011;3961;42.058;25.586;2022-12-10T01:16:36;95.67;;;30.47;;
7831;SDS011;3961;42.058;25.586;2022-12-10T01:19:01;80.10;;;30.47;;
7831;SDS011;3961;42.058;25.586;2022-12-10T01:21:27;97.03;;;32.23;;
7831;SDS011;3961;42.058;25.586;2022-12-10T01:23:53;92.10;;;31.27;;
7831;SDS011;3961;42.058;25.586;2022-12-10T01:26:21;85.50;;;30.23;;
7831;SDS011;3961;42.058;25.586;2022-12-10T01:28:48;93.40;;;30.57;;
7831;SDS011;3961;42.058;25.586;2022-12-10T01:31:25;108.50;;;32.83;;
7831;SDS011;3961;42.058;25.586;2022-12-10T01:33:52;105.23;;;31.47;;
7831;SDS011;3961;42.058;25.586;2022-12-10T01:36:20;84.27;;;30.40;;
7831;SDS011;3961;42.058;25.586;2022-12-10T01:38:49;94.37;;;31.47;;
7831;SDS011;3961;42.058;25.586;2022-12-10T01:41:17;88.63;;;30.40;;
7831;SDS011;3961;42.058;25.586;2022-12-10T01:43:48;97.17;;;32.97;;
7831;SDS011;3961;42.058;25.586;2022-12-10T01:46:14;94.33;;;31.80;;
7831;SDS011;3961;42.058;25.586;2022-12-10T01:48:40;108.67;;;30.67;;
7831;SDS011;3961;42.058;25.586;2022-12-10T01:51:06;89.53;;;28.03;;
7831;SDS011;3961;42.058;25.586;2022-12-10T01:53:32;94.00;;;29.80;;
7831;SDS011;3961;42.058;25.586;2022-12-10T01:55:58;85.97;;;31.03;;
7831;SDS011;3961;42.058;25.586;2022-12-10T01:58:24;78.27;;;28.80;;
7831;SDS011;3961;42.058;25.586;2022-12-10T02:01:10;80.30;;;29.17;;
7831;SDS011;3961;42.058;25.586;2022-12-10T02:11:59;83.47;;;29.20;;
7831;SDS011;3961;42.058;25.586;2022-12-10T02:17:31;86.73;;;30.70;;
7831;SDS011;3961;42.058;25.586;2022-12-10T02:20:12;82.57;;;29.93;;
7831;SDS011;3961;42.058;25.586;2022-12-10T02:22:46;86.33;;;30.77;;
7831;SDS011;3961;42.058;25.586;2022-12-10T02:25:15;98.23;;;30.60;;
7831;SDS011;3961;42.058;25.586;2022-12-10T02:27:46;87.33;;;28.47;;
7831;SDS011;3961;42.058;25.586;2022-12-10T02:30:33;94.10;;;31.07;;
7831;SDS011;3961;42.058;25.586;2022-12-10T02:33:01;87.40;;;31.30;;
7831;SDS011;3961;42.058;25.586;2022-12-10T02:35:31;92.63;;;31.07;;
7831;SDS011;3961;42.058;25.586;2022-12-10T02:38:05;92.17;;;31.20;;
7831;SDS011;3961;42.058;25.586;2022-12-10T02:40:35;95.00;;;31.57;;
7831;SDS011;3961;42.058;25.586;2022-12-10T02:43:04;105.47;;;33.80;;
7831;SDS011;3961;42.058;25.586;2022-12-10T02:45:32;107.67;;;33.20;;
7831;SDS011;3961;42.058;25.586;2022-12-10T02:47:59;103.83;;;33.40;;
7831;SDS011;3961;42.058;25.586;2022-12-10T02:50:26;92.10;;;31.73;;
7831;SDS011;3961;42.058;25.586;2022-12-10T02:52:52;100.13;;;32.50;;
7831;SDS011;3961;42.058;25.586;2022-12-10T02:55:18;102.97;;;32.90;;
7831;SDS011;3961;42.058;25.586;2022-12-10T03:01:10;106.83;;;33.53;;
7831;SDS011;3961;42.058;25.586;2022-12-10T03:04:04;102.10;;;31.87;;
7831;SDS011;3961;42.058;25.586;2022-12-10T03:06:38;108.90;;;30.80;;
7831;SDS011;3961;42.058;25.586;2022-12-10T03:09:11;95.43;;;30.53;;
7831;SDS011;3961;42.058;25.586;2022-12-10T03:11:42;101.57;;;32.63;;
7831;SDS011;3961;42.058;25.586;2022-12-10T03:14:15;100.67;;;31.97;;
7831;SDS011;3961;42.058;25.586;2022-12-10T03:17:04;106.97;;;31.77;;
7831;SDS011;3961;42.058;25.586;2022-12-10T03:19:32;103.73;;;30.33;;
7831;SDS011;3961;42.058;25.586;2022-12-10T03:22:02;97.80;;;31.20;;
7831;SDS011;3961;42.058;25.586;2022-12-10T03:24:29;103.60;;;31.37;;
7831;SDS011;3961;42.058;25.586;2022-12-10T03:26:56;99.37;;;33.50;;
7831;SDS011;3961;42.058;25.586;2022-12-10T03:29:24;110.40;;;33.13;;
7831;SDS011;3961;42.058;25.586;2022-12-10T03:31:53;94.40;;;32.67;;
7831;SDS011;3961;42.058;25.586;2022-12-10T03:34:20;99.97;;;32.97;;
7831;SDS011;3961;42.058;25.586;2022-12-10T03:36:46;89.73;;;31.93;;
7831;SDS011;3961;42.058;25.586;2022-12-10T03:39:13;101.57;;;32.57;;
7831;SDS011;3961;42.058;25.586;2022-12-10T03:41:39;89.43;;;30.37;;
7831;SDS011;3961;42.058;25.586;2022-12-10T03:44:05;114.23;;;35.10;;
7831;SDS011;3961;42.058;25.586;2022-12-10T03:46:30;165.67;;;34.07;;
7831;SDS011;3961;42.058;25.586;2022-12-10T03:48:57;123.70;;;33.83;;
7831;SDS011;3961;42.058;25.586;2022-12-10T03:51:23;100.53;;;32.93;;
7831;SDS011;3961;42.058;25.586;2022-12-10T03:53:49;124.83;;;34.10;;
7831;SDS011;3961;42.058;25.586;2022-12-10T03:56:15;118.40;;;33.27;;
7831;SDS011;3961;42.058;25.586;2022-12-10T03:58:42;120.53;;;33.30;;
7831;SDS011;3961;42.058;25.586;2022-12-10T04:01:08;120.13;;;33.03;;
7831;SDS011;3961;42.058;25.586;2022-12-10T04:03:34;102.93;;;31.90;;
7831;SDS011;3961;42.058;25.586;2022-12-10T04:06:04;123.03;;;31.97;;
7831;SDS011;3961;42.058;25.586;2022-12-10T04:08:32;121.73;;;32.80;;
7831;SDS011;3961;42.058;25.586;2022-12-10T04:11:05;97.97;;;31.70;;
7831;SDS011;3961;42.058;25.586;2022-12-10T04:13:33;115.63;;;32.77;;
7831;SDS011;3961;42.058;25.586;2022-12-10T04:16:18;88.73;;;30.87;;
7831;SDS011;3961;42.058;25.586;2022-12-10T04:21:24;105.03;;;31.07;;
7831;SDS011;3961;42.058;25.586;2022-12-10T04:24:09;132.50;;;31.40;;
7831;SDS011;3961;42.058;25.586;2022-12-10T04:26:54;91.33;;;30.40;;
7831;SDS011;3961;42.058;25.586;2022-12-10T04:29:25;95.73;;;31.10;;
7831;SDS011;3961;42.058;25.586;2022-12-10T04:31:52;100.43;;;29.67;;
7831;SDS011;3961;42.058;25.586;2022-12-10T04:34:19;92.27;;;29.83;;
7831;SDS011;3961;42.058;25.586;2022-12-10T04:36:45;90.17;;;31.50;;
7831;SDS011;3961;42.058;25.586;2022-12-10T04:39:11;101.20;;;31.63;;
7831;SDS011;3961;42.058;25.586;2022-12-10T04:41:39;97.10;;;31.80;;
7831;SDS011;3961;42.058;25.586;2022-12-10T04:44:06;106.47;;;31.93;;
7831;SDS011;3961;42.058;25.586;2022-12-10T04:46:32;93.23;;;31.37;;
7831;SDS011;3961;42.058;25.586;2022-12-10T04:48:58;98.27;;;32.57;;
7831;SDS011;3961;42.058;25.586;2022-12-10T04:51:23;94.60;;;31.40;;
7831;SDS011;3961;42.058;25.586;2022-12-10T04:53:49;91.47;;;32.03;;
7831;SDS011;3961;42.058;25.586;2022-12-10T04:56:14;97.83;;;32.47;;
7831;SDS011;3961;42.058;25.586;2022-12-10T04:58:40;89.87;;;30.63;;
7831;SDS011;3961;42.058;25.586;2022-12-10T05:01:07;84.73;;;31.80;;
7831;SDS011;3961;42.058;25.586;2022-12-10T05:03:34;95.33;;;34.07;;
7831;SDS011;3961;42.058;25.586;2022-12-10T05:06:01;84.30;;;29.60;;
7831;SDS011;3961;42.058;25.586;2022-12-10T05:08:27;86.47;;;31.17;;
7831;SDS011;3961;42.058;25.586;2022-12-10T05:10:53;102.63;;;30.97;;
7831;SDS011;3961;42.058;25.586;2022-12-10T05:13:19;88.27;;;31.70;;
7831;SDS011;3961;42.058;25.586;2022-12-10T05:15:44;78.30;;;29.83;;
7831;SDS011;3961;42.058;25.586;2022-12-10T05:18:10;71.47;;;28.27;;
7831;SDS011;3961;42.058;25.586;2022-12-10T05:20:35;69.13;;;27.13;;
7831;SDS011;3961;42.058;25.586;2022-12-10T05:23:01;63.23;;;26.23;;
7831;SDS011;3961;42.058;25.586;2022-12-10T05:25:45;70.53;;;28.13;;
7831;SDS011;3961;42.058;25.586;2022-12-10T05:28:20;65.40;;;26.03;;
7831;SDS011;3961;42.058;25.586;2022-12-10T05:30:46;65.10;;;25.90;;
7831;SDS011;3961;42.058;25.586;2022-12-10T05:33:11;61.80;;;24.90;;
7831;SDS011;3961;42.058;25.586;2022-12-10T05:35:38;55.37;;;24.63;;
7831;SDS011;3961;42.058;25.586;2022-12-10T05:38:04;66.53;;;25.90;;
7831;SDS011;3961;42.058;25.586;2022-12-10T05:40:33;61.60;;;24.80;;
7831;SDS011;3961;42.058;25.586;2022-12-10T05:43:00;51.17;;;22.47;;
7831;SDS011;3961;42.058;25.586;2022-12-10T05:45:25;55.50;;;24.23;;
7831;SDS011;3961;42.058;25.586;2022-12-10T05:47:51;59.27;;;22.63;;
7831;SDS011;3961;42.058;25.586;2022-12-10T05:50:17;51.60;;;23.00;;
7831;SDS011;3961;42.058;25.586;2022-12-10T05:52:42;53.47;;;23.53;;
7831;SDS011;3961;42.058;25.586;2022-12-10T05:55:08;56.70;;;22.50;;
7831;SDS011;3961;42.058;25.586;2022-12-10T05:57:35;49.63;;;22.20;;
7831;SDS011;3961;42.058;25.586;2022-12-10T06:00:01;44.33;;;21.93;;
7831;SDS011;3961;42.058;25.586;2022-12-10T06:02:28;47.73;;;21.73;;
7831;SDS011;3961;42.058;25.586;2022-12-10T06:04:54;47.70;;;22.10;;
7831;SDS011;3961;42.058;25.586;2022-12-10T06:07:19;48.07;;;21.33;;
7831;SDS011;3961;42.058;25.586;2022-12-10T06:09:45;50.63;;;21.83;;
7831;SDS011;3961;42.058;25.586;2022-12-10T06:12:10;55.13;;;21.83;;
7831;SDS011;3961;42.058;25.586;2022-12-10T06:14:36;48.30;;;21.40;;
7831;SDS011;3961;42.058;25.586;2022-12-10T06:17:01;54.17;;;24.17;;
7831;SDS011;3961;42.058;25.586;2022-12-10T06:19:27;62.57;;;26.47;;
7831;SDS011;3961;42.058;25.586;2022-12-10T06:21:52;59.17;;;26.20;;
7831;SDS011;3961;42.058;25.586;2022-12-10T06:24:18;50.33;;;22.33;;
7831;SDS011;3961;42.058;25.586;2022-12-10T06:26:43;45.47;;;20.10;;
7831;SDS011;3961;42.058;25.586;2022-12-10T06:29:09;45.40;;;20.93;;
7831;SDS011;3961;42.058;25.586;2022-12-10T06:31:34;50.07;;;22.77;;
7831;SDS011;3961;42.058;25.586;2022-12-10T06:34:00;47.33;;;20.73;;
7831;SDS011;3961;42.058;25.586;2022-12-10T06:36:25;49.30;;;21.77;;
7831;SDS011;3961;42.058;25.586;2022-12-10T06:38:51;42.77;;;18.37;;
7831;SDS011;3961;42.058;25.586;2022-12-10T06:41:17;43.53;;;19.70;;
7831;SDS011;3961;42.058;25.586;2022-12-10T06:43:45;41.97;;;19.47;;
7831;SDS011;3961;42.058;25.586;2022-12-10T06:46:12;33.47;;;18.30;;
7831;SDS011;3961;42.058;25.586;2022-12-10T06:48:39;41.27;;;19.13;;
7831;SDS011;3961;42.058;25.586;2022-12-10T06:51:05;34.53;;;18.23;;
7831;SDS011;3961;42.058;25.586;2022-12-10T06:53:32;32.00;;;16.50;;
7831;SDS011;3961;42.058;25.586;2022-12-10T06:55:59;32.93;;;16.33;;
7831;SDS011;3961;42.058;25.586;2022-12-10T06:58:29;28.00;;;15.50;;
7831;SDS011;3961;42.058;25.586;2022-12-10T07:01:02;32.33;;;15.20;;
7831;SDS011;3961;42.058;25.586;2022-12-10T07:03:28;27.03;;;15.03;;
7831;SDS011;3961;42.058;25.586;2022-12-10T07:05:56;29.70;;;14.73;;
7831;SDS011;3961;42.058;25.586;2022-12-10T07:08:22;25.73;;;14.87;;
7831;SDS011;3961;42.058;25.586;2022-12-10T07:10:48;31.23;;;16.07;;
7831;SDS011;3961;42.058;25.586;2022-12-10T07:13:14;29.87;;;16.10;;
7831;SDS011;3961;42.058;25.586;2022-12-10T07:15:39;30.70;;;15.80;;
7831;SDS011;3961;42.058;25.586;2022-12-10T07:18:05;25.47;;;14.23;;
7831;SDS011;3961;42.058;25.586;2022-12-10T07:20:30;28.63;;;15.80;;
7831;SDS011;3961;42.058;25.586;2022-12-10T07:22:56;25.83;;;14.13;;
7831;SDS011;3961;42.058;25.586;2022-12-10T07:25:22;27.70;;;15.07;;
7831;SDS011;3961;42.058;25.586;2022-12-10T07:27:48;26.17;;;15.70;;
7831;SDS011;3961;42.058;25.586;2022-12-10T07:30:13;31.63;;;15.53;;
7831;SDS011;3961;42.058;25.586;2022-12-10T07:32:39;25.23;;;14.63;;
7831;SDS011;3961;42.058;25.586;2022-12-10T07:35:04;29.30;;;14.83;;
7831;SDS011;3961;42.058;25.586;2022-12-10T07:37:30;29.10;;;15.80;;
7831;SDS011;3961;42.058;25.586;2022-12-10T07:39:55;29.23;;;15.57;;
7831;SDS011;3961;42.058;25.586;2022-12-10T07:42:21;28.17;;;14.67;;
7831;SDS011;3961;42.058;25.586;2022-12-10T07:44:48;25.97;;;13.90;;
7831;SDS011;3961;42.058;25.586;2022-12-10T07:47:13;27.63;;;14.50;;
7831;SDS011;3961;42.058;25.586;2022-12-10T07:49:39;25.10;;;14.63;;
7831;SDS011;3961;42.058;25.586;2022-12-10T07:52:04;22.87;;;14.07;;
7831;SDS011;3961;42.058;25.586;2022-12-10T07:54:30;29.07;;;14.80;;
7831;SDS011;3961;42.058;25.586;2022-12-10T07:56:55;30.17;;;15.60;;
7831;SDS011;3961;42.058;25.586;2022-12-10T07:59:21;27.93;;;15.93;;
7831;SDS011;3961;42.058;25.586;2022-12-10T08:01:46;28.53;;;15.53;;
7831;SDS011;3961;42.058;25.586;2022-12-10T08:04:14;28.43;;;15.70;;
7831;SDS011;3961;42.058;25.586;2022-12-10T08:06:39;31.90;;;16.77;;
7831;SDS011;3961;42.058;25.586;2022-12-10T08:09:05;31.17;;;15.83;;
7831;SDS011;3961;42.058;25.586;2022-12-10T08:11:31;28.77;;;15.97;;
7831;SDS011;3961;42.058;25.586;2022-12-10T08:13:57;29.10;;;15.97;;
7831;SDS011;3961;42.058;25.586;2022-12-10T08:16:24;29.57;;;15.83;;
7831;SDS011;3961;42.058;25.586;2022-12-10T08:18:51;30.97;;;17.80;;
7831;SDS011;3961;42.058;25.586;2022-12-10T08:21:18;38.30;;;18.83;;
7831;SDS011;3961;42.058;25.586;2022-12-10T08:23:45;34.13;;;18.07;;
7831;SDS011;3961;42.058;25.586;2022-12-10T08:26:17;37.73;;;19.03;;
7831;SDS011;3961;42.058;25.586;2022-12-10T08:28:45;36.43;;;16.97;;
7831;SDS011;3961;42.058;25.586;2022-12-10T08:31:12;30.13;;;16.73;;
7831;SDS011;3961;42.058;25.586;2022-12-10T08:33:39;35.57;;;17.70;;
7831;SDS011;3961;42.058;25.586;2022-12-10T08:36:06;34.90;;;16.53;;
7831;SDS011;3961;42.058;25.586;2022-12-10T08:38:32;35.83;;;18.30;;
7831;SDS011;3961;42.058;25.586;2022-12-10T08:40:59;38.30;;;18.60;;
7831;SDS011;3961;42.058;25.586;2022-12-10T08:43:29;39.63;;;19.03;;
7831;SDS011;3961;42.058;25.586;2022-12-10T08:45:57;50.03;;;20.50;;
7831;SDS011;3961;42.058;25.586;2022-12-10T08:48:23;36.20;;;19.63;;
7831;SDS011;3961;42.058;25.586;2022-12-10T08:50:49;42.90;;;20.37;;
7831;SDS011;3961;42.058;25.586;2022-12-10T08:53:15;43.93;;;21.17;;
7831;SDS011;3961;42.058;25.586;2022-12-10T08:55:40;51.07;;;21.67;;
7831;SDS011;3961;42.058;25.586;2022-12-10T08:58:05;62.33;;;21.33;;
7831;SDS011;3961;42.058;25.586;2022-12-10T09:00:32;49.27;;;22.67;;
7831;SDS011;3961;42.058;25.586;2022-12-10T09:02:57;57.73;;;22.40;;
7831;SDS011;3961;42.058;25.586;2022-12-10T09:05:24;51.57;;;22.33;;
7831;SDS011;3961;42.058;25.586;2022-12-10T09:07:49;47.90;;;20.60;;
7831;SDS011;3961;42.058;25.586;2022-12-10T09:10:15;52.30;;;20.77;;
7831;SDS011;3961;42.058;25.586;2022-12-10T09:12:41;48.70;;;19.53;;
7831;SDS011;3961;42.058;25.586;2022-12-10T09:15:08;61.57;;;21.17;;
7831;SDS011;3961;42.058;25.586;2022-12-10T09:17:35;50.40;;;22.70;;
7831;SDS011;3961;42.058;25.586;2022-12-10T09:20:02;46.10;;;21.37;;
7831;SDS011;3961;42.058;25.586;2022-12-10T09:22:28;61.03;;;24.50;;
7831;SDS011;3961;42.058;25.586;2022-12-10T09:24:54;49.10;;;22.60;;
7831;SDS011;3961;42.058;25.586;2022-12-10T09:27:19;56.70;;;22.77;;
7831;SDS011;3961;42.058;25.586;2022-12-10T09:29:45;49.50;;;22.63;;
7831;SDS011;3961;42.058;25.586;2022-12-10T09:32:11;48.93;;;21.63;;
7831;SDS011;3961;42.058;25.586;2022-12-10T09:34:36;59.73;;;25.03;;
7831;SDS011;3961;42.058;25.586;2022-12-10T09:37:02;54.87;;;25.00;;
7831;SDS011;3961;42.058;25.586;2022-12-10T09:39:27;57.80;;;24.30;;
7831;SDS011;3961;42.058;25.586;2022-12-10T09:44:36;57.63;;;24.87;;
7831;SDS011;3961;42.058;25.586;2022-12-10T09:47:09;58.20;;;24.77;;
7831;SDS011;3961;42.058;25.586;2022-12-10T09:52:23;55.80;;;25.57;;
7831;SDS011;3961;42.058;25.586;2022-12-10T09:54:53;62.23;;;25.53;;
7831;SDS011;3961;42.058;25.586;2022-12-10T09:57:29;66.80;;;24.70;;
7831;SDS011;3961;42.058;25.586;2022-12-10T10:00:00;53.97;;;25.23;;
7831;SDS011;3961;42.058;25.586;2022-12-10T10:02:40;53.87;;;24.87;;
7831;SDS011;3961;42.058;25.586;2022-12-10T10:05:10;54.30;;;24.57;;
7831;SDS011;3961;42.058;25.586;2022-12-10T10:07:42;53.40;;;24.67;;
7831;SDS011;3961;42.058;25.586;2022-12-10T10:10:28;51.40;;;25.43;;
7831;SDS011;3961;42.058;25.586;2022-12-10T10:12:58;53.27;;;25.07;;
7831;SDS011;3961;42.058;25.586;2022-12-10T10:15:44;51.77;;;24.97;;
7831;SDS011;3961;42.058;25.586;2022-12-10T10:18:15;49.93;;;25.60;;
7831;SDS011;3961;42.058;25.586;2022-12-10T10:21:07;52.27;;;25.77;;
7831;SDS011;3961;42.058;25.586;2022-12-10T10:23:42;59.53;;;26.33;;
7831;SDS011;3961;42.058;25.586;2022-12-10T10:26:10;56.00;;;26.17;;
7831;SDS011;3961;42.058;25.586;2022-12-10T10:28:35;54.93;;;26.20;;
7831;SDS011;3961;42.058;25.586;2022-12-10T10:31:07;67.40;;;27.43;;
7831;SDS011;3961;42.058;25.586;2022-12-10T10:33:50;64.17;;;29.67;;
7831;SDS011;3961;42.058;25.586;2022-12-10T10:36:55;64.20;;;27.67;;
7831;SDS011;3961;42.058;25.586;2022-12-10T10:39:28;65.30;;;26.97;;
7831;SDS011;3961;42.058;25.586;2022-12-10T10:41:56;56.30;;;27.40;;
7831;SDS011;3961;42.058;25.586;2022-12-10T10:44:25;59.00;;;27.40;;
7831;SDS011;3961;42.058;25.586;2022-12-10T10:46:53;59.63;;;29.63;;
7831;SDS011;3961;42.058;25.586;2022-12-10T10:51:50;60.97;;;28.10;;
7831;SDS011;3961;42.058;25.586;2022-12-10T10:56:57;65.70;;;27.43;;
7831;SDS011;3961;42.058;25.586;2022-12-10T10:59:30;64.90;;;29.33;;
7831;SDS011;3961;42.058;25.586;2022-12-10T11:02:45;58.70;;;28.63;;
7831;SDS011;3961;42.058;25.586;2022-12-10T11:04:49;73.77;;;29.67;;
7831;SDS011;3961;42.058;25.586;2022-12-10T11:07:32;58.07;;;27.13;;
7831;SDS011;3961;42.058;25.586;2022-12-10T11:10:00;71.67;;;29.53;;
7831;SDS011;3961;42.058;25.586;2022-12-10T11:15:03;61.00;;;28.90;;
7831;SDS011;3961;42.058;25.586;2022-12-10T11:17:54;66.37;;;28.10;;
7831;SDS011;3961;42.058;25.586;2022-12-10T11:22:56;64.00;;;29.73;;
7831;SDS011;3961;42.058;25.586;2022-12-10T11:25:36;66.17;;;29.17;;
7831;SDS011;3961;42.058;25.586;2022-12-10T11:31:11;59.13;;;27.87;;
7831;SDS011;3961;42.058;25.586;2022-12-10T11:33:52;73.43;;;30.73;;
7831;SDS011;3961;42.058;25.586;2022-12-10T11:36:33;64.60;;;30.27;;
7831;SDS011;3961;42.058;25.586;2022-12-10T11:44:49;60.03;;;28.87;;
7831;SDS011;3961;42.058;25.586;2022-12-10T11:47:33;66.77;;;30.13;;
7831;SDS011;3961;42.058;25.586;2022-12-10T11:53:13;63.50;;;28.20;;
7831;SDS011;3961;42.058;25.586;2022-12-10T12:15:13;65.23;;;28.53;;
7831;SDS011;3961;42.058;25.586;2022-12-10T12:17:48;65.67;;;27.67;;
7831;SDS011;3961;42.058;25.586;2022-12-10T12:20:23;55.50;;;26.40;;
7831;SDS011;3961;42.058;25.586;2022-12-10T12:22:58;65.90;;;29.53;;
7831;SDS011;3961;42.058;25.586;2022-12-10T12:25:31;64.23;;;27.97;;
7831;SDS011;3961;42.058;25.586;2022-12-10T12:30:39;63.23;;;28.53;;
7831;SDS011;3961;42.058;25.586;2022-12-10T12:38:19;59.20;;;28.43;;
7831;SDS011;3961;42.058;25.586;2022-12-10T12:40:57;57.17;;;28.60;;
7831;SDS011;3961;42.058;25.586;2022-12-10T12:49:28;62.10;;;28.53;;
7831;SDS011;3961;42.058;25.586;2022-12-10T12:52:14;61.20;;;27.40;;
7831;SDS011;3961;42.058;25.586;2022-12-10T12:54:56;60.00;;;28.40;;
7831;SDS011;3961;42.058;25.586;2022-12-10T12:57:37;71.07;;;30.13;;
7831;SDS011;3961;42.058;25.586;2022-12-10T13:00:16;72.80;;;33.67;;
7831;SDS011;3961;42.058;25.586;2022-12-10T13:02:51;60.00;;;30.53;;
7831;SDS011;3961;42.058;25.586;2022-12-10T13:05:31;53.77;;;28.07;;
7831;SDS011;3961;42.058;25.586;2022-12-10T13:10:44;63.40;;;29.53;;
7831;SDS011;3961;42.058;25.586;2022-12-10T13:13:17;62.03;;;30.73;;
7831;SDS011;3961;42.058;25.586;2022-12-10T13:15:49;56.13;;;28.93;;
7831;SDS011;3961;42.058;25.586;2022-12-10T13:41:43;62.13;;;29.97;;
7831;SDS011;3961;42.058;25.586;2022-12-10T13:47:27;70.63;;;32.70;;
7831;SDS011;3961;42.058;25.586;2022-12-10T13:50:00;65.80;;;31.53;;
7831;SDS011;3961;42.058;25.586;2022-12-10T14:00:46;52.10;;;29.03;;
7831;SDS011;3961;42.058;25.586;2022-12-10T14:03:30;65.07;;;31.30;;
7831;SDS011;3961;42.058;25.586;2022-12-10T14:06:20;64.57;;;30.13;;
7831;SDS011;3961;42.058;25.586;2022-12-10T14:11:31;57.60;;;29.20;;
7831;SDS011;3961;42.058;25.586;2022-12-10T14:14:00;58.50;;;29.33;;
7831;SDS011;3961;42.058;25.586;2022-12-10T14:16:27;56.73;;;28.90;;
7831;SDS011;3961;42.058;25.586;2022-12-10T14:18:57;55.73;;;29.60;;
7831;SDS011;3961;42.058;25.586;2022-12-10T14:21:26;54.70;;;28.73;;
7831;SDS011;3961;42.058;25.586;2022-12-10T14:23:53;63.97;;;28.57;;
7831;SDS011;3961;42.058;25.586;2022-12-10T14:26:20;65.60;;;30.13;;
7831;SDS011;3961;42.058;25.586;2022-12-10T14:28:54;60.80;;;29.90;;
7831;SDS011;3961;42.058;25.586;2022-12-10T14:31:23;57.27;;;30.57;;
7831;SDS011;3961;42.058;25.586;2022-12-10T14:33:53;64.67;;;30.23;;
7831;SDS011;3961;42.058;25.586;2022-12-10T14:36:29;64.83;;;30.23;;
7831;SDS011;3961;42.058;25.586;2022-12-10T14:39:16;57.80;;;29.73;;
7831;SDS011;3961;42.058;25.586;2022-12-10T14:41:46;62.10;;;32.33;;
7831;SDS011;3961;42.058;25.586;2022-12-10T14:44:14;56.13;;;30.30;;
7831;SDS011;3961;42.058;25.586;2022-12-10T14:46:41;61.87;;;30.37;;
7831;SDS011;3961;42.058;25.586;2022-12-10T14:49:26;59.23;;;31.10;;
7831;SDS011;3961;42.058;25.586;2022-12-10T14:51:51;60.23;;;30.77;;
7831;SDS011;3961;42.058;25.586;2022-12-10T14:54:24;60.37;;;30.23;;
7831;SDS011;3961;42.058;25.586;2022-12-10T14:56:50;62.93;;;29.67;;
7831;SDS011;3961;42.058;25.586;2022-12-10T14:59:19;69.80;;;32.90;;
7831;SDS011;3961;42.058;25.586;2022-12-10T15:01:50;66.50;;;32.20;;
7831;SDS011;3961;42.058;25.586;2022-12-10T15:04:21;69.77;;;32.33;;
7831;SDS011;3961;42.058;25.586;2022-12-10T15:06:49;66.73;;;34.27;;
7831;SDS011;3961;42.058;25.586;2022-12-10T15:09:19;77.47;;;34.00;;
7831;SDS011;3961;42.058;25.586;2022-12-10T15:11:53;70.83;;;35.43;;
7831;SDS011;3961;42.058;25.586;2022-12-10T15:14:21;63.97;;;34.70;;
7831;SDS011;3961;42.058;25.586;2022-12-10T15:16:49;74.70;;;37.27;;
7831;SDS011;3961;42.058;25.586;2022-12-10T15:21:51;71.53;;;35.60;;
7831;SDS011;3961;42.058;25.586;2022-12-10T15:26:53;79.90;;;36.00;;
7831;SDS011;3961;42.058;25.586;2022-12-10T15:31:47;81.07;;;36.70;;
7831;SDS011;3961;42.058;25.586;2022-12-10T15:34:14;92.30;;;38.17;;
7831;SDS011;3961;42.058;25.586;2022-12-10T15:36:40;72.03;;;32.80;;
7831;SDS011;3961;42.058;25.586;2022-12-10T15:41:43;65.50;;;28.77;;
7831;SDS011;3961;42.058;25.586;2022-12-10T15:44:23;49.00;;;21.43;;
7831;SDS011;3961;42.058;25.586;2022-12-10T15:47:03;32.43;;;12.17;;
7831;SDS011;3961;42.058;25.586;2022-12-10T15:49:38;30.30;;;12.10;;
7831;SDS011;3961;42.058;25.586;2022-12-10T15:52:03;25.80;;;8.17;;
7831;SDS011;3961;42.058;25.586;2022-12-10T15:54:36;22.03;;;7.03;;
7831;SDS011;3961;42.058;25.586;2022-12-10T15:57:13;21.43;;;6.53;;
7831;SDS011;3961;42.058;25.586;2022-12-10T15:59:51;21.03;;;7.10;;
7831;SDS011;3961;42.058;25.586;2022-12-10T16:05:13;24.07;;;6.67;;
7831;SDS011;3961;42.058;25.586;2022-12-10T16:07:43;21.13;;;6.17;;
7831;SDS011;3961;42.058;25.586;2022-12-10T16:10:11;16.23;;;5.63;;
7831;SDS011;3961;42.058;25.586;2022-12-10T16:12:38;19.37;;;5.27;;
7831;SDS011;3961;42.058;25.586;2022-12-10T16:15:06;19.90;;;5.90;;
7831;SDS011;3961;42.058;25.586;2022-12-10T16:17:35;20.27;;;6.23;;
7831;SDS011;3961;42.058;25.586;2022-12-10T16:20:13;21.73;;;5.33;;
7831;SDS011;3961;42.058;25.586;2022-12-10T16:22:47;25.80;;;5.73;;
7831;SDS011;3961;42.058;25.586;2022-12-10T16:25:13;22.47;;;6.30;;
7831;SDS011;3961;42.058;25.586;2022-12-10T16:27:39;21.33;;;5.27;;
7831;SDS011;3961;42.058;25.586;2022-12-10T16:30:18;19.47;;;5.30;;
7831;SDS011;3961;42.058;25.586;2022-12-10T16:32:45;21.27;;;6.03;;
7831;SDS011;3961;42.058;25.586;2022-12-10T16:35:11;26.10;;;5.53;;
7831;SDS011;3961;42.058;25.586;2022-12-10T16:37:39;15.00;;;5.00;;
7831;SDS011;3961;42.058;25.586;2022-12-10T16:40:10;24.27;;;6.10;;
7831;SDS011;3961;42.058;25.586;2022-12-10T16:42:37;24.37;;;5.50;;
7831;SDS011;3961;42.058;25.586;2022-12-10T16:45:09;23.77;;;6.33;;
7831;SDS011;3961;42.058;25.586;2022-12-10T16:47:38;18.60;;;5.20;;
7831;SDS011;3961;42.058;25.586;2022-12-10T16:50:04;21.40;;;5.70;;
7831;SDS011;3961;42.058;25.586;2022-12-10T16:52:29;18.27;;;5.17;;
7831;SDS011;3961;42.058;25.586;2022-12-10T16:54:55;17.90;;;4.83;;
7831;SDS011;3961;42.058;25.586;2022-12-10T16:57:21;20.33;;;5.60;;